sensor_id;sensor_type;location;lat;lon;timestamp;P1;durP1;ratioP1;P2;durP2;ratioP2
16979;SDS011;42288;52.182;21.156;2023-03-17T00:00:07;102.00;;;45.17;;
16979;SDS011;42288;52.182;21.156;2023-03-17T00:02:34;101.40;;;43.57;;
16979;SDS011;42288;52.182;21.156;2023-03-17T00:05:01;112.37;;;46.70;;
16979;SDS011;42288;52.182;21.156;2023-03-17T00:07:27;111.83;;;49.73;;
16979;SDS011;42288;52.182;21.156;2023-03-17T00:09:53;113.60;;;48.73;;
16979;SDS011;42288;52.182;21.156;2023-03-17T00:12:18;120.37;;;50.93;;
16979;SDS011;42288;52.182;21.156;2023-03-17T00:14:44;106.77;;;46.63;;
16979;SDS011;42288;52.182;21.156;2023-03-17T00:17:12;122.20;;;50.03;;
16979;SDS011;42288;52.182;21.156;2023-03-17T00:19:38;114.23;;;48.37;;
16979;SDS011;42288;52.182;21.156;2023-03-17T00:22:08;120.10;;;53.70;;
16979;SDS011;42288;52.182;21.156;2023-03-17T00:24:40;123.33;;;50.63;;
16979;SDS011;42288;52.182;21.156;2023-03-17T00:27:12;120.03;;;49.10;;
16979;SDS011;42288;52.182;21.156;2023-03-17T00:29:38;120.83;;;49.90;;
16979;SDS011;42288;52.182;21.156;2023-03-17T00:32:05;113.87;;;47.80;;
16979;SDS011;42288;52.182;21.156;2023-03-17T00:34:41;121.20;;;51.40;;
16979;SDS011;42288;52.182;21.156;2023-03-17T00:37:10;115.50;;;48.73;;
16979;SDS011;42288;52.182;21.156;2023-03-17T00:39:37;132.83;;;57.30;;
16979;SDS011;42288;52.182;21.156;2023-03-17T00:42:03;135.60;;;55.07;;
16979;SDS011;42288;52.182;21.156;2023-03-17T00:44:32;139.63;;;54.20;;
16979;SDS011;42288;52.182;21.156;2023-03-17T00:46:58;129.63;;;54.37;;
16979;SDS011;42288;52.182;21.156;2023-03-17T00:49:25;131.20;;;53.23;;
16979;SDS011;42288;52.182;21.156;2023-03-17T00:51:52;121.07;;;51.70;;
16979;SDS011;42288;52.182;21.156;2023-03-17T00:54:19;132.80;;;55.40;;
16979;SDS011;42288;52.182;21.156;2023-03-17T00:56:46;144.57;;;55.63;;
16979;SDS011;42288;52.182;21.156;2023-03-17T01:01:53;125.67;;;54.20;;
16979;SDS011;42288;52.182;21.156;2023-03-17T01:04:20;148.63;;;61.60;;
16979;SDS011;42288;52.182;21.156;2023-03-17T01:06:47;137.23;;;56.47;;
16979;SDS011;42288;52.182;21.156;2023-03-17T01:09:14;126.57;;;55.97;;
16979;SDS011;42288;52.182;21.156;2023-03-17T01:11:42;144.70;;;57.50;;
16979;SDS011;42288;52.182;21.156;2023-03-17T01:14:08;135.77;;;54.60;;
16979;SDS011;42288;52.182;21.156;2023-03-17T01:16:35;131.23;;;56.50;;
16979;SDS011;42288;52.182;21.156;2023-03-17T01:19:01;141.33;;;60.30;;
16979;SDS011;42288;52.182;21.156;2023-03-17T01:21:27;143.30;;;58.40;;
16979;SDS011;42288;52.182;21.156;2023-03-17T01:23:53;139.30;;;58.37;;
16979;SDS011;42288;52.182;21.156;2023-03-17T01:26:19;151.80;;;63.50;;
16979;SDS011;42288;52.182;21.156;2023-03-17T01:28:44;139.23;;;59.77;;
16979;SDS011;42288;52.182;21.156;2023-03-17T01:31:10;162.20;;;68.87;;
16979;SDS011;42288;52.182;21.156;2023-03-17T01:33:36;147.30;;;61.17;;
16979;SDS011;42288;52.182;21.156;2023-03-17T01:36:02;145.93;;;60.73;;
16979;SDS011;42288;52.182;21.156;2023-03-17T01:38:27;158.20;;;66.13;;
16979;SDS011;42288;52.182;21.156;2023-03-17T01:40:53;142.30;;;61.80;;
16979;SDS011;42288;52.182;21.156;2023-03-17T01:43:23;165.57;;;70.53;;
16979;SDS011;42288;52.182;21.156;2023-03-17T01:46:13;161.23;;;72.23;;
16979;SDS011;42288;52.182;21.156;2023-03-17T01:56:48;168.97;;;65.90;;
16979;SDS011;42288;52.182;21.156;2023-03-17T01:59:18;147.13;;;61.17;;
16979;SDS011;42288;52.182;21.156;2023-03-17T02:01:48;153.53;;;65.00;;
16979;SDS011;42288;52.182;21.156;2023-03-17T02:04:18;146.40;;;61.43;;
16979;SDS011;42288;52.182;21.156;2023-03-17T02:06:45;169.63;;;68.30;;
16979;SDS011;42288;52.182;21.156;2023-03-17T02:09:14;145.30;;;62.93;;
16979;SDS011;42288;52.182;21.156;2023-03-17T02:11:41;149.90;;;62.17;;
16979;SDS011;42288;52.182;21.156;2023-03-17T02:14:07;155.10;;;65.10;;
16979;SDS011;42288;52.182;21.156;2023-03-17T02:16:33;137.40;;;60.93;;
16979;SDS011;42288;52.182;21.156;2023-03-17T02:18:58;143.50;;;59.87;;
16979;SDS011;42288;52.182;21.156;2023-03-17T02:22:06;140.57;;;59.80;;
16979;SDS011;42288;52.182;21.156;2023-03-17T02:24:29;154.13;;;62.53;;
16979;SDS011;42288;52.182;21.156;2023-03-17T02:27:03;151.70;;;62.73;;
16979;SDS011;42288;52.182;21.156;2023-03-17T02:29:36;138.70;;;60.07;;
16979;SDS011;42288;52.182;21.156;2023-03-17T02:32:03;157.57;;;62.70;;
16979;SDS011;42288;52.182;21.156;2023-03-17T02:34:30;149.10;;;62.10;;
16979;SDS011;42288;52.182;21.156;2023-03-17T02:36:56;140.97;;;62.07;;
16979;SDS011;42288;52.182;21.156;2023-03-17T02:39:22;137.43;;;57.53;;
16979;SDS011;42288;52.182;21.156;2023-03-17T02:41:48;146.30;;;62.07;;
16979;SDS011;42288;52.182;21.156;2023-03-17T02:44:14;143.67;;;59.40;;
16979;SDS011;42288;52.182;21.156;2023-03-17T02:46:40;140.27;;;58.10;;
16979;SDS011;42288;52.182;21.156;2023-03-17T02:49:06;147.87;;;59.57;;
16979;SDS011;42288;52.182;21.156;2023-03-17T02:51:32;138.27;;;57.60;;
16979;SDS011;42288;52.182;21.156;2023-03-17T02:53:58;145.97;;;58.77;;
16979;SDS011;42288;52.182;21.156;2023-03-17T02:56:23;138.60;;;58.50;;
16979;SDS011;42288;52.182;21.156;2023-03-17T02:58:49;126.23;;;55.00;;
16979;SDS011;42288;52.182;21.156;2023-03-17T03:01:15;148.07;;;60.77;;
16979;SDS011;42288;52.182;21.156;2023-03-17T03:03:41;134.80;;;56.93;;
16979;SDS011;42288;52.182;21.156;2023-03-17T03:06:07;140.20;;;58.33;;
16979;SDS011;42288;52.182;21.156;2023-03-17T03:08:32;129.10;;;56.57;;
16979;SDS011;42288;52.182;21.156;2023-03-17T03:10:58;145.53;;;59.43;;
16979;SDS011;42288;52.182;21.156;2023-03-17T03:13:26;138.20;;;58.20;;
16979;SDS011;42288;52.182;21.156;2023-03-17T03:15:52;136.77;;;58.83;;
16979;SDS011;42288;52.182;21.156;2023-03-17T03:18:18;130.50;;;55.27;;
16979;SDS011;42288;52.182;21.156;2023-03-17T03:20:43;130.73;;;54.17;;
16979;SDS011;42288;52.182;21.156;2023-03-17T03:23:10;135.10;;;53.50;;
16979;SDS011;42288;52.182;21.156;2023-03-17T03:25:36;130.53;;;55.40;;
16979;SDS011;42288;52.182;21.156;2023-03-17T03:28:03;126.33;;;52.93;;
16979;SDS011;42288;52.182;21.156;2023-03-17T03:30:30;122.57;;;52.87;;
16979;SDS011;42288;52.182;21.156;2023-03-17T03:32:57;119.30;;;51.50;;
16979;SDS011;42288;52.182;21.156;2023-03-17T03:35:23;125.83;;;51.17;;
16979;SDS011;42288;52.182;21.156;2023-03-17T03:37:49;123.63;;;52.80;;
16979;SDS011;42288;52.182;21.156;2023-03-17T03:40:14;114.40;;;50.03;;
16979;SDS011;42288;52.182;21.156;2023-03-17T03:42:40;121.53;;;49.80;;
16979;SDS011;42288;52.182;21.156;2023-03-17T03:45:06;113.17;;;48.83;;
16979;SDS011;42288;52.182;21.156;2023-03-17T03:47:33;110.00;;;46.77;;
16979;SDS011;42288;52.182;21.156;2023-03-17T03:49:58;104.67;;;46.97;;
16979;SDS011;42288;52.182;21.156;2023-03-17T03:52:24;107.13;;;46.40;;
16979;SDS011;42288;52.182;21.156;2023-03-17T03:54:50;115.13;;;49.67;;
16979;SDS011;42288;52.182;21.156;2023-03-17T03:57:15;103.97;;;46.57;;
16979;SDS011;42288;52.182;21.156;2023-03-17T03:59:41;100.33;;;45.47;;
16979;SDS011;42288;52.182;21.156;2023-03-17T04:02:06;99.10;;;43.40;;
16979;SDS011;42288;52.182;21.156;2023-03-17T04:04:32;98.93;;;42.80;;
16979;SDS011;42288;52.182;21.156;2023-03-17T04:06:58;111.53;;;44.93;;
16979;SDS011;42288;52.182;21.156;2023-03-17T04:09:24;105.87;;;47.87;;
16979;SDS011;42288;52.182;21.156;2023-03-17T04:11:50;97.70;;;42.33;;
16979;SDS011;42288;52.182;21.156;2023-03-17T04:14:15;100.03;;;43.83;;
16979;SDS011;42288;52.182;21.156;2023-03-17T04:16:42;94.53;;;40.20;;
16979;SDS011;42288;52.182;21.156;2023-03-17T04:19:07;90.43;;;39.70;;
16979;SDS011;42288;52.182;21.156;2023-03-17T04:21:33;85.03;;;38.50;;
16979;SDS011;42288;52.182;21.156;2023-03-17T04:23:59;89.60;;;37.77;;
16979;SDS011;42288;52.182;21.156;2023-03-17T04:26:25;94.60;;;39.60;;
16979;SDS011;42288;52.182;21.156;2023-03-17T04:28:51;89.97;;;37.60;;
16979;SDS011;42288;52.182;21.156;2023-03-17T04:31:16;82.23;;;37.80;;
16979;SDS011;42288;52.182;21.156;2023-03-17T04:33:42;94.90;;;39.80;;
16979;SDS011;42288;52.182;21.156;2023-03-17T04:36:09;83.63;;;37.87;;
16979;SDS011;42288;52.182;21.156;2023-03-17T04:38:42;98.70;;;39.57;;
16979;SDS011;42288;52.182;21.156;2023-03-17T04:41:07;79.53;;;36.90;;
16979;SDS011;42288;52.182;21.156;2023-03-17T04:43:33;85.97;;;37.30;;
16979;SDS011;42288;52.182;21.156;2023-03-17T04:45:58;79.73;;;34.83;;
16979;SDS011;42288;52.182;21.156;2023-03-17T04:48:24;83.67;;;37.63;;
16979;SDS011;42288;52.182;21.156;2023-03-17T04:50:51;79.47;;;36.23;;
16979;SDS011;42288;52.182;21.156;2023-03-17T04:53:16;86.53;;;37.50;;
16979;SDS011;42288;52.182;21.156;2023-03-17T04:55:42;77.80;;;36.30;;
16979;SDS011;42288;52.182;21.156;2023-03-17T04:58:08;85.80;;;38.17;;
16979;SDS011;42288;52.182;21.156;2023-03-17T05:00:33;77.27;;;35.93;;
16979;SDS011;42288;52.182;21.156;2023-03-17T05:03:02;79.90;;;37.57;;
16979;SDS011;42288;52.182;21.156;2023-03-17T05:05:31;75.27;;;34.23;;
16979;SDS011;42288;52.182;21.156;2023-03-17T05:07:57;78.40;;;36.43;;
16979;SDS011;42288;52.182;21.156;2023-03-17T05:10:23;76.60;;;35.20;;
16979;SDS011;42288;52.182;21.156;2023-03-17T05:12:48;84.90;;;37.27;;
16979;SDS011;42288;52.182;21.156;2023-03-17T05:15:14;83.93;;;37.73;;
16979;SDS011;42288;52.182;21.156;2023-03-17T05:17:40;78.83;;;35.27;;
16979;SDS011;42288;52.182;21.156;2023-03-17T05:20:06;73.20;;;37.67;;
16979;SDS011;42288;52.182;21.156;2023-03-17T05:22:33;79.30;;;37.10;;
16979;SDS011;42288;52.182;21.156;2023-03-17T05:24:59;78.10;;;36.97;;
16979;SDS011;42288;52.182;21.156;2023-03-17T05:27:25;76.53;;;35.80;;
16979;SDS011;42288;52.182;21.156;2023-03-17T05:29:50;74.27;;;34.37;;
16979;SDS011;42288;52.182;21.156;2023-03-17T05:32:16;71.27;;;33.77;;
16979;SDS011;42288;52.182;21.156;2023-03-17T05:34:42;75.67;;;34.83;;
16979;SDS011;42288;52.182;21.156;2023-03-17T05:37:09;75.47;;;36.13;;
16979;SDS011;42288;52.182;21.156;2023-03-17T05:39:35;69.77;;;33.27;;
16979;SDS011;42288;52.182;21.156;2023-03-17T05:42:01;78.97;;;38.10;;
16979;SDS011;42288;52.182;21.156;2023-03-17T05:44:27;77.73;;;37.03;;
16979;SDS011;42288;52.182;21.156;2023-03-17T05:46:52;79.67;;;34.73;;
16979;SDS011;42288;52.182;21.156;2023-03-17T05:49:19;77.73;;;36.73;;
16979;SDS011;42288;52.182;21.156;2023-03-17T05:51:45;67.37;;;30.70;;
16979;SDS011;42288;52.182;21.156;2023-03-17T05:54:11;66.00;;;31.97;;
16979;SDS011;42288;52.182;21.156;2023-03-17T05:56:37;67.00;;;30.53;;
16979;SDS011;42288;52.182;21.156;2023-03-17T05:59:02;61.40;;;28.30;;
16979;SDS011;42288;52.182;21.156;2023-03-17T06:01:28;71.23;;;30.70;;
16979;SDS011;42288;52.182;21.156;2023-03-17T06:03:55;71.63;;;34.53;;
16979;SDS011;42288;52.182;21.156;2023-03-17T06:06:21;70.83;;;34.63;;
16979;SDS011;42288;52.182;21.156;2023-03-17T06:08:48;68.73;;;33.57;;
16979;SDS011;42288;52.182;21.156;2023-03-17T06:11:14;73.80;;;34.70;;
16979;SDS011;42288;52.182;21.156;2023-03-17T06:13:39;61.40;;;29.60;;
16979;SDS011;42288;52.182;21.156;2023-03-17T06:16:05;62.50;;;30.53;;
16979;SDS011;42288;52.182;21.156;2023-03-17T06:18:31;70.80;;;29.10;;
16979;SDS011;42288;52.182;21.156;2023-03-17T06:20:57;68.97;;;33.17;;
16979;SDS011;42288;52.182;21.156;2023-03-17T06:23:23;62.93;;;31.30;;
16979;SDS011;42288;52.182;21.156;2023-03-17T06:25:48;68.63;;;32.23;;
16979;SDS011;42288;52.182;21.156;2023-03-17T06:28:14;69.17;;;29.50;;
16979;SDS011;42288;52.182;21.156;2023-03-17T06:30:40;61.10;;;30.60;;
16979;SDS011;42288;52.182;21.156;2023-03-17T06:33:06;64.83;;;29.33;;
16979;SDS011;42288;52.182;21.156;2023-03-17T06:35:32;68.60;;;28.83;;
16979;SDS011;42288;52.182;21.156;2023-03-17T06:37:58;66.93;;;29.23;;
16979;SDS011;42288;52.182;21.156;2023-03-17T06:40:24;65.33;;;29.40;;
16979;SDS011;42288;52.182;21.156;2023-03-17T06:42:50;69.73;;;29.90;;
16979;SDS011;42288;52.182;21.156;2023-03-17T06:45:16;62.07;;;28.33;;
16979;SDS011;42288;52.182;21.156;2023-03-17T06:47:42;58.30;;;28.10;;
16979;SDS011;42288;52.182;21.156;2023-03-17T06:50:08;64.00;;;28.90;;
16979;SDS011;42288;52.182;21.156;2023-03-17T06:52:35;58.70;;;26.97;;
16979;SDS011;42288;52.182;21.156;2023-03-17T06:55:02;57.87;;;27.10;;
16979;SDS011;42288;52.182;21.156;2023-03-17T06:57:28;51.40;;;23.67;;
16979;SDS011;42288;52.182;21.156;2023-03-17T06:59:54;52.17;;;25.77;;
16979;SDS011;42288;52.182;21.156;2023-03-17T07:02:19;60.27;;;25.13;;
16979;SDS011;42288;52.182;21.156;2023-03-17T07:04:45;53.57;;;23.50;;
16979;SDS011;42288;52.182;21.156;2023-03-17T07:07:10;54.67;;;24.63;;
16979;SDS011;42288;52.182;21.156;2023-03-17T07:09:36;56.93;;;25.40;;
16979;SDS011;42288;52.182;21.156;2023-03-17T07:12:02;69.37;;;27.63;;
16979;SDS011;42288;52.182;21.156;2023-03-17T07:14:32;46.77;;;23.93;;
16979;SDS011;42288;52.182;21.156;2023-03-17T07:16:59;59.17;;;26.57;;
16979;SDS011;42288;52.182;21.156;2023-03-17T07:19:26;47.10;;;23.43;;
16979;SDS011;42288;52.182;21.156;2023-03-17T07:21:52;49.43;;;24.07;;
16979;SDS011;42288;52.182;21.156;2023-03-17T07:24:20;50.63;;;24.03;;
16979;SDS011;42288;52.182;21.156;2023-03-17T07:26:46;60.10;;;27.23;;
16979;SDS011;42288;52.182;21.156;2023-03-17T07:29:11;61.10;;;25.10;;
16979;SDS011;42288;52.182;21.156;2023-03-17T07:31:38;43.10;;;20.87;;
16979;SDS011;42288;52.182;21.156;2023-03-17T07:34:03;45.40;;;20.13;;
16979;SDS011;42288;52.182;21.156;2023-03-17T07:36:30;43.53;;;19.13;;
16979;SDS011;42288;52.182;21.156;2023-03-17T07:38:57;72.97;;;31.80;;
16979;SDS011;42288;52.182;21.156;2023-03-17T07:41:23;53.37;;;24.30;;
16979;SDS011;42288;52.182;21.156;2023-03-17T07:43:49;44.87;;;21.57;;
16979;SDS011;42288;52.182;21.156;2023-03-17T07:46:14;50.30;;;19.17;;
16979;SDS011;42288;52.182;21.156;2023-03-17T07:48:40;47.17;;;19.70;;
16979;SDS011;42288;52.182;21.156;2023-03-17T07:51:14;35.80;;;17.13;;
16979;SDS011;42288;52.182;21.156;2023-03-17T07:53:41;66.17;;;27.77;;
16979;SDS011;42288;52.182;21.156;2023-03-17T07:56:09;59.97;;;24.53;;
16979;SDS011;42288;52.182;21.156;2023-03-17T07:58:34;47.10;;;22.67;;
16979;SDS011;42288;52.182;21.156;2023-03-17T08:01:00;32.07;;;15.90;;
16979;SDS011;42288;52.182;21.156;2023-03-17T08:03:27;37.07;;;17.30;;
16979;SDS011;42288;52.182;21.156;2023-03-17T08:05:54;38.87;;;16.93;;
16979;SDS011;42288;52.182;21.156;2023-03-17T08:08:22;31.30;;;16.10;;
16979;SDS011;42288;52.182;21.156;2023-03-17T08:10:49;30.53;;;14.83;;
16979;SDS011;42288;52.182;21.156;2023-03-17T08:13:15;42.40;;;18.40;;
16979;SDS011;42288;52.182;21.156;2023-03-17T08:15:41;35.80;;;17.23;;
16979;SDS011;42288;52.182;21.156;2023-03-17T08:18:07;29.37;;;14.90;;
16979;SDS011;42288;52.182;21.156;2023-03-17T08:20:33;62.90;;;27.27;;
16979;SDS011;42288;52.182;21.156;2023-03-17T08:22:59;35.70;;;14.67;;
16979;SDS011;42288;52.182;21.156;2023-03-17T08:25:25;32.57;;;15.40;;
16979;SDS011;42288;52.182;21.156;2023-03-17T08:27:51;31.97;;;14.30;;
16979;SDS011;42288;52.182;21.156;2023-03-17T08:30:18;39.73;;;17.40;;
16979;SDS011;42288;52.182;21.156;2023-03-17T08:32:45;35.63;;;17.47;;
16979;SDS011;42288;52.182;21.156;2023-03-17T08:35:12;22.47;;;10.87;;
16979;SDS011;42288;52.182;21.156;2023-03-17T08:37:41;38.97;;;16.63;;
16979;SDS011;42288;52.182;21.156;2023-03-17T08:40:08;28.73;;;13.40;;
16979;SDS011;42288;52.182;21.156;2023-03-17T08:42:35;35.10;;;17.57;;
16979;SDS011;42288;52.182;21.156;2023-03-17T08:45:02;20.63;;;10.23;;
16979;SDS011;42288;52.182;21.156;2023-03-17T08:47:30;20.33;;;8.57;;
16979;SDS011;42288;52.182;21.156;2023-03-17T08:49:56;27.87;;;12.13;;
16979;SDS011;42288;52.182;21.156;2023-03-17T08:52:24;18.37;;;9.10;;
16979;SDS011;42288;52.182;21.156;2023-03-17T08:54:51;15.80;;;9.10;;
16979;SDS011;42288;52.182;21.156;2023-03-17T08:57:18;21.17;;;9.90;;
16979;SDS011;42288;52.182;21.156;2023-03-17T08:59:44;13.00;;;7.23;;
16979;SDS011;42288;52.182;21.156;2023-03-17T09:02:11;18.83;;;9.43;;
16979;SDS011;42288;52.182;21.156;2023-03-17T09:04:37;21.50;;;11.03;;
16979;SDS011;42288;52.182;21.156;2023-03-17T09:07:04;20.57;;;8.43;;
16979;SDS011;42288;52.182;21.156;2023-03-17T09:09:30;15.00;;;7.80;;
16979;SDS011;42288;52.182;21.156;2023-03-17T09:11:58;16.87;;;7.53;;
16979;SDS011;42288;52.182;21.156;2023-03-17T09:14:24;16.00;;;8.30;;
16979;SDS011;42288;52.182;21.156;2023-03-17T09:16:51;23.90;;;10.33;;
16979;SDS011;42288;52.182;21.156;2023-03-17T09:19:17;16.20;;;7.10;;
16979;SDS011;42288;52.182;21.156;2023-03-17T09:21:43;16.73;;;7.57;;
16979;SDS011;42288;52.182;21.156;2023-03-17T09:24:08;17.43;;;8.30;;
16979;SDS011;42288;52.182;21.156;2023-03-17T09:26:34;15.83;;;7.67;;
16979;SDS011;42288;52.182;21.156;2023-03-17T09:29:01;14.70;;;7.00;;
16979;SDS011;42288;52.182;21.156;2023-03-17T09:31:27;13.10;;;6.60;;
16979;SDS011;42288;52.182;21.156;2023-03-17T09:33:53;15.07;;;7.07;;
16979;SDS011;42288;52.182;21.156;2023-03-17T09:36:19;13.93;;;6.37;;
16979;SDS011;42288;52.182;21.156;2023-03-17T09:38:44;13.47;;;7.10;;
16979;SDS011;42288;52.182;21.156;2023-03-17T09:49:07;11.30;;;5.70;;
16979;SDS011;42288;52.182;21.156;2023-03-17T09:51:36;11.63;;;5.93;;
16979;SDS011;42288;52.182;21.156;2023-03-17T09:54:06;11.97;;;5.03;;
16979;SDS011;42288;52.182;21.156;2023-03-17T09:56:39;11.27;;;4.87;;
16979;SDS011;42288;52.182;21.156;2023-03-17T09:59:22;10.20;;;4.63;;
16979;SDS011;42288;52.182;21.156;2023-03-17T10:01:57;10.17;;;4.80;;
16979;SDS011;42288;52.182;21.156;2023-03-17T10:04:23;16.17;;;6.40;;
16979;SDS011;42288;52.182;21.156;2023-03-17T10:06:49;11.60;;;4.40;;
16979;SDS011;42288;52.182;21.156;2023-03-17T10:11:54;11.17;;;4.33;;
16979;SDS011;42288;52.182;21.156;2023-03-17T10:14:59;14.20;;;5.33;;
16979;SDS011;42288;52.182;21.156;2023-03-17T10:17:35;16.83;;;5.77;;
16979;SDS011;42288;52.182;21.156;2023-03-17T10:20:15;8.43;;;4.10;;
16979;SDS011;42288;52.182;21.156;2023-03-17T10:22:56;10.07;;;3.67;;
16979;SDS011;42288;52.182;21.156;2023-03-17T10:25:33;8.60;;;3.50;;
16979;SDS011;42288;52.182;21.156;2023-03-17T10:28:01;9.37;;;4.27;;
16979;SDS011;42288;52.182;21.156;2023-03-17T10:30:30;8.27;;;3.43;;
16979;SDS011;42288;52.182;21.156;2023-03-17T10:32:57;6.50;;;4.10;;
16979;SDS011;42288;52.182;21.156;2023-03-17T10:35:26;5.13;;;3.10;;
16979;SDS011;42288;52.182;21.156;2023-03-17T10:37:52;11.00;;;5.30;;
16979;SDS011;42288;52.182;21.156;2023-03-17T10:40:25;10.43;;;3.83;;
16979;SDS011;42288;52.182;21.156;2023-03-17T10:43:04;7.67;;;4.03;;
16979;SDS011;42288;52.182;21.156;2023-03-17T10:45:33;7.77;;;3.60;;
16979;SDS011;42288;52.182;21.156;2023-03-17T10:48:02;10.77;;;4.30;;
16979;SDS011;42288;52.182;21.156;2023-03-17T10:50:40;10.97;;;3.70;;
16979;SDS011;42288;52.182;21.156;2023-03-17T10:53:06;12.30;;;5.63;;
16979;SDS011;42288;52.182;21.156;2023-03-17T10:55:42;12.30;;;5.73;;
16979;SDS011;42288;52.182;21.156;2023-03-17T11:03:58;8.27;;;4.10;;
16979;SDS011;42288;52.182;21.156;2023-03-17T11:06:36;7.63;;;3.47;;
16979;SDS011;42288;52.182;21.156;2023-03-17T11:09:07;7.77;;;3.60;;
16979;SDS011;42288;52.182;21.156;2023-03-17T11:11:40;8.63;;;4.10;;
16979;SDS011;42288;52.182;21.156;2023-03-17T11:14:14;8.97;;;4.03;;
16979;SDS011;42288;52.182;21.156;2023-03-17T11:17:02;10.63;;;4.13;;
16979;SDS011;42288;52.182;21.156;2023-03-17T11:19:50;6.70;;;3.70;;
16979;SDS011;42288;52.182;21.156;2023-03-17T11:25:12;8.73;;;4.10;;
16979;SDS011;42288;52.182;21.156;2023-03-17T11:30:28;9.43;;;4.23;;
16979;SDS011;42288;52.182;21.156;2023-03-17T11:33:03;11.07;;;5.07;;
16979;SDS011;42288;52.182;21.156;2023-03-17T11:35:49;10.67;;;5.17;;
16979;SDS011;42288;52.182;21.156;2023-03-17T11:38:26;9.33;;;4.80;;
16979;SDS011;42288;52.182;21.156;2023-03-17T11:43:33;9.10;;;4.17;;
16979;SDS011;42288;52.182;21.156;2023-03-17T11:57:08;8.87;;;4.50;;
16979;SDS011;42288;52.182;21.156;2023-03-17T11:59:58;13.37;;;6.13;;
16979;SDS011;42288;52.182;21.156;2023-03-17T12:05:49;9.70;;;5.43;;
16979;SDS011;42288;52.182;21.156;2023-03-17T12:08:26;13.47;;;6.67;;
16979;SDS011;42288;52.182;21.156;2023-03-17T12:11:01;12.80;;;6.20;;
16979;SDS011;42288;52.182;21.156;2023-03-17T12:18:34;18.20;;;7.57;;
16979;SDS011;42288;52.182;21.156;2023-03-17T12:26:13;12.50;;;6.57;;
16979;SDS011;42288;52.182;21.156;2023-03-17T12:31:11;13.50;;;6.20;;
16979;SDS011;42288;52.182;21.156;2023-03-17T12:36:35;12.73;;;6.20;;
16979;SDS011;42288;52.182;21.156;2023-03-17T12:39:06;12.70;;;6.73;;
16979;SDS011;42288;52.182;21.156;2023-03-17T12:47:57;14.73;;;6.53;;
16979;SDS011;42288;52.182;21.156;2023-03-17T12:55:55;12.63;;;5.60;;
16979;SDS011;42288;52.182;21.156;2023-03-17T12:58:43;14.13;;;5.87;;
16979;SDS011;42288;52.182;21.156;2023-03-17T13:01:15;15.37;;;5.90;;
16979;SDS011;42288;52.182;21.156;2023-03-17T13:06:29;11.40;;;5.20;;
16979;SDS011;42288;52.182;21.156;2023-03-17T13:09:25;12.13;;;5.23;;
16979;SDS011;42288;52.182;21.156;2023-03-17T13:11:53;12.17;;;5.50;;
16979;SDS011;42288;52.182;21.156;2023-03-17T13:24:58;9.07;;;4.70;;
16979;SDS011;42288;52.182;21.156;2023-03-17T13:32:54;12.93;;;6.00;;
16979;SDS011;42288;52.182;21.156;2023-03-17T13:35:26;14.97;;;6.27;;
16979;SDS011;42288;52.182;21.156;2023-03-17T13:46:43;13.27;;;7.20;;
16979;SDS011;42288;52.182;21.156;2023-03-17T13:51:43;17.53;;;7.03;;
16979;SDS011;42288;52.182;21.156;2023-03-17T13:54:39;15.90;;;6.50;;
16979;SDS011;42288;52.182;21.156;2023-03-17T13:57:30;15.67;;;6.97;;
16979;SDS011;42288;52.182;21.156;2023-03-17T14:02:40;14.87;;;7.00;;
16979;SDS011;42288;52.182;21.156;2023-03-17T14:05:12;14.17;;;7.17;;
16979;SDS011;42288;52.182;21.156;2023-03-17T14:10:39;14.90;;;7.03;;
16979;SDS011;42288;52.182;21.156;2023-03-17T14:13:14;16.30;;;7.60;;
16979;SDS011;42288;52.182;21.156;2023-03-17T14:15:54;15.53;;;7.33;;
16979;SDS011;42288;52.182;21.156;2023-03-17T14:21:02;18.47;;;7.23;;
16979;SDS011;42288;52.182;21.156;2023-03-17T14:23:30;16.50;;;6.83;;
16979;SDS011;42288;52.182;21.156;2023-03-17T14:25:57;15.00;;;6.60;;
16979;SDS011;42288;52.182;21.156;2023-03-17T14:28:27;18.57;;;7.20;;
16979;SDS011;42288;52.182;21.156;2023-03-17T14:30:59;14.87;;;6.23;;
16979;SDS011;42288;52.182;21.156;2023-03-17T14:33:28;14.17;;;6.30;;
16979;SDS011;42288;52.182;21.156;2023-03-17T14:35:56;15.97;;;6.60;;
16979;SDS011;42288;52.182;21.156;2023-03-17T14:40:50;15.63;;;6.23;;
16979;SDS011;42288;52.182;21.156;2023-03-17T14:43:29;14.30;;;6.17;;
16979;SDS011;42288;52.182;21.156;2023-03-17T14:46:05;13.37;;;5.73;;
16979;SDS011;42288;52.182;21.156;2023-03-17T14:48:37;16.77;;;6.40;;
16979;SDS011;42288;52.182;21.156;2023-03-17T14:51:12;13.53;;;5.70;;
16979;SDS011;42288;52.182;21.156;2023-03-17T14:53:44;11.97;;;5.60;;
16979;SDS011;42288;52.182;21.156;2023-03-17T14:56:11;15.80;;;6.40;;
16979;SDS011;42288;52.182;21.156;2023-03-17T14:58:41;11.07;;;5.87;;
16979;SDS011;42288;52.182;21.156;2023-03-17T15:01:16;16.03;;;6.67;;
16979;SDS011;42288;52.182;21.156;2023-03-17T15:04:11;18.07;;;7.10;;
16979;SDS011;42288;52.182;21.156;2023-03-17T15:09:26;14.67;;;6.30;;
16979;SDS011;42288;52.182;21.156;2023-03-17T15:11:53;15.43;;;6.60;;
16979;SDS011;42288;52.182;21.156;2023-03-17T15:14:32;17.70;;;6.33;;
16979;SDS011;42288;52.182;21.156;2023-03-17T15:17:03;15.00;;;6.93;;
16979;SDS011;42288;52.182;21.156;2023-03-17T15:19:37;21.07;;;9.13;;
16979;SDS011;42288;52.182;21.156;2023-03-17T15:22:20;16.73;;;6.70;;
16979;SDS011;42288;52.182;21.156;2023-03-17T15:25:00;23.53;;;7.93;;
16979;SDS011;42288;52.182;21.156;2023-03-17T15:27:27;18.77;;;8.17;;
16979;SDS011;42288;52.182;21.156;2023-03-17T15:29:54;16.77;;;7.97;;
16979;SDS011;42288;52.182;21.156;2023-03-17T15:32:20;23.13;;;8.20;;
16979;SDS011;42288;52.182;21.156;2023-03-17T15:34:48;21.97;;;8.73;;
16979;SDS011;42288;52.182;21.156;2023-03-17T15:37:21;18.23;;;8.90;;
16979;SDS011;42288;52.182;21.156;2023-03-17T15:39:48;16.13;;;6.87;;
16979;SDS011;42288;52.182;21.156;2023-03-17T15:42:18;22.67;;;7.23;;
16979;SDS011;42288;52.182;21.156;2023-03-17T15:44:45;14.87;;;6.80;;
16979;SDS011;42288;52.182;21.156;2023-03-17T15:47:12;15.37;;;6.90;;
16979;SDS011;42288;52.182;21.156;2023-03-17T15:49:39;20.43;;;9.07;;
16979;SDS011;42288;52.182;21.156;2023-03-17T15:52:16;16.87;;;6.77;;
16979;SDS011;42288;52.182;21.156;2023-03-17T15:54:49;15.13;;;6.63;;
16979;SDS011;42288;52.182;21.156;2023-03-17T15:57:15;14.73;;;6.77;;
16979;SDS011;42288;52.182;21.156;2023-03-17T15:59:41;19.47;;;8.23;;
16979;SDS011;42288;52.182;21.156;2023-03-17T16:04:52;13.30;;;5.93;;
16979;SDS011;42288;52.182;21.156;2023-03-17T16:07:19;15.60;;;6.20;;
16979;SDS011;42288;52.182;21.156;2023-03-17T16:09:46;16.30;;;5.87;;
16979;SDS011;42288;52.182;21.156;2023-03-17T16:12:12;14.30;;;6.50;;
16979;SDS011;42288;52.182;21.156;2023-03-17T16:14:38;13.87;;;6.33;;
16979;SDS011;42288;52.182;21.156;2023-03-17T16:17:04;17.07;;;7.40;;
16979;SDS011;42288;52.182;21.156;2023-03-17T16:19:31;12.93;;;6.37;;
16979;SDS011;42288;52.182;21.156;2023-03-17T16:21:57;36.53;;;15.33;;